Time;durP1;ratioP1;P1;durP2;ratioP2;P2;SDS_P1;SDS_P2;PMS_P1;PMS_P2;Temp;Humidity;BMP_temperature;BMP_pressure;BME280_temperature;BME280_humidity;BME280_pressure;Samples;Min_cycle;Max_cycle;Signal;HPM_P1;HPM_P2
2024/04/19 00:03:50;;;;;;;8.85;5.00;;;;;;;4.94;100.00;100239.45;4989091;58;1136743;-79
2024/04/19 00:08:56;;;;;;;9.30;5.30;;;;;;;4.89;100.00;100233.63;4966845;57;1136755;-78
2024/04/19 00:14:01;;;;;;;10.58;5.80;;;;;;;4.88;100.00;100230.66;5007606;57;1136638;-79
2024/04/19 00:19:07;;;;;;;8.13;4.67;;;;;;;4.87;100.00;100228.97;5115871;56;1138762;-80
2024/04/19 00:24:12;;;;;;;9.98;4.50;;;;;;;4.87;100.00;100228.13;5090687;56;1136916;-79
2024/04/19 00:29:18;;;;;;;9.00;5.60;;;;;;;4.85;100.00;100228.67;4927304;58;1136608;-79
2024/04/19 00:34:23;;;;;;;6.00;4.53;;;;;;;4.82;100.00;100222.30;5091554;56;1136616;-80
2024/04/19 00:39:29;;;;;;;12.03;4.73;;;;;;;4.81;100.00;100216.68;4976946;58;1136504;-79
2024/04/19 00:44:34;;;;;;;9.20;4.70;;;;;;;4.81;100.00;100214.06;4905577;58;1138732;-79
2024/04/19 00:49:40;;;;;;;6.17;3.90;;;;;;;4.81;100.00;100212.28;5049186;57;1136756;-79
2024/04/19 00:54:46;;;;;;;6.73;4.00;;;;;;;4.87;100.00;100202.77;5069628;57;1136797;-78
2024/04/19 00:59:52;;;;;;;4.67;3.43;;;;;;;4.90;100.00;100182.91;5049147;57;1256077;-79
2024/04/19 01:04:58;;;;;;;6.20;4.37;;;;;;;4.90;100.00;100194.70;5050407;57;1136618;-78
2024/04/19 01:10:04;;;;;;;7.97;3.77;;;;;;;4.89;100.00;100188.23;5024584;57;1136842;-78
2024/04/19 01:15:24;;;;;;;6.50;3.93;;;;;;;4.91;100.00;100184.59;4923309;58;1136386;-79
2024/04/19 01:20:30;;;;;;;5.20;3.53;;;;;;;4.89;100.00;100175.98;4922777;58;1136708;-79
2024/04/19 01:25:38;;;;;;;6.20;3.85;;;;;;;4.90;100.00;100178.12;5086827;56;1136712;-79
2024/04/19 01:30:45;;;;;;;6.23;3.50;;;;;;;4.92;100.00;100169.72;5125430;56;1136679;-79
2024/04/19 01:35:50;;;;;;;4.57;3.40;;;;;;;4.90;100.00;100164.56;5052127;56;1136862;-80
2024/04/19 01:40:57;;;;;;;11.03;4.10;;;;;;;4.94;100.00;100161.30;5056467;56;1136813;-80
2024/04/19 01:46:03;;;;;;;6.10;3.70;;;;;;;4.92;100.00;100157.45;5065873;57;1138593;-80
2024/04/19 01:51:09;;;;;;;5.00;3.17;;;;;;;4.93;100.00;100146.51;5033106;57;1136590;-79
2024/04/19 01:56:14;;;;;;;7.10;4.23;;;;;;;4.90;100.00;100135.73;5038457;57;1136768;-79
2024/04/19 02:01:20;;;;;;;6.50;3.60;;;;;;;4.85;100.00;100131.27;5047457;57;1136493;-79
2024/04/19 02:06:26;;;;;;;5.65;3.30;;;;;;;4.84;100.00;100119.56;5044902;57;1136789;-79
2024/04/19 02:11:31;;;;;;;6.17;3.30;;;;;;;4.79;100.00;100115.90;5050837;57;1137097;-78
2024/04/19 02:16:37;;;;;;;6.25;3.62;;;;;;;4.76;100.00;100118.70;5069855;57;1136476;-78
2024/04/19 02:21:42;;;;;;;4.80;2.97;;;;;;;4.73;100.00;100112.36;5046628;57;1136932;-79
2024/04/19 02:26:52;;;;;;;6.53;3.20;;;;;;;4.72;100.00;100111.14;5047941;57;1221977;-79
2024/04/19 02:31:55;;;;;;;6.87;3.97;;;;;;;4.67;100.00;100098.30;5007027;57;1136696;-80
2024/04/19 02:37:01;;;;;;;6.47;3.43;;;;;;;4.65;100.00;100104.09;4964564;57;1136704;-78
2024/04/19 02:42:07;;;;;;;6.40;3.73;;;;;;;4.61;100.00;100096.05;5013591;57;1136961;-79
2024/04/19 02:47:31;;;;;;;5.10;3.17;;;;;;;4.57;100.00;100091.94;5041337;56;1137052;-79
2024/04/19 02:52:36;;;;;;;5.60;3.03;;;;;;;4.52;100.00;100084.35;5069229;57;1136611;-79
2024/04/19 02:57:42;;;;;;;6.20;3.40;;;;;;;4.50;100.00;100081.45;4951649;57;1136626;-79
2024/04/19 03:02:47;;;;;;;5.30;3.47;;;;;;;4.45;100.00;100079.09;4976200;57;1255993;-79
2024/04/19 03:07:53;;;;;;;4.10;3.13;;;;;;;4.43;100.00;100073.09;5089032;57;1136590;-79
2024/04/19 03:12:59;;;;;;;4.97;3.15;;;;;;;4.40;100.00;100070.69;5054717;57;1136741;-79
2024/04/19 03:18:05;;;;;;;4.43;3.20;;;;;;;4.37;100.00;100060.39;4950678;57;1137114;-79
2024/04/19 03:23:11;;;;;;;3.85;2.77;;;;;;;4.33;100.00;100057.57;5030293;57;1137251;-79
2024/04/19 03:28:16;;;;;;;4.30;3.30;;;;;;;4.31;100.00;100050.27;4960241;58;1136945;-79
2024/04/19 03:33:22;;;;;;;3.87;3.00;;;;;;;4.29;100.00;100046.89;4965566;58;1136308;-79
2024/04/19 03:38:28;;;;;;;5.26;2.80;;;;;;;4.24;100.00;100038.03;5113960;56;1137263;-79
2024/04/19 03:43:40;;;;;;;3.83;2.58;;;;;;;4.24;100.00;100025.41;5070885;56;1136655;-79
2024/04/19 03:48:41;;;;;;;3.70;2.65;;;;;;;4.20;100.00;100032.59;5048241;57;1136657;-79
2024/04/19 03:53:46;;;;;;;5.50;2.80;;;;;;;4.16;100.00;100036.31;4971909;58;1136943;-79
2024/04/19 03:58:51;;;;;;;8.30;3.87;;;;;;;4.10;100.00;100017.06;4981900;57;1136718;-79
2024/04/19 04:03:57;;;;;;;6.13;3.03;;;;;;;4.10;100.00;100017.06;5034071;56;1137016;-78
2024/04/19 04:09:03;;;;;;;6.93;3.23;;;;;;;4.19;100.00;100023.52;4971578;57;1136774;-79
2024/04/19 04:14:09;;;;;;;3.83;2.47;;;;;;;4.25;100.00;100014.00;5040314;57;1136539;-79
2024/04/19 04:19:14;;;;;;;5.97;2.70;;;;;;;4.30;100.00;100011.09;4972852;56;1136682;-79
2024/04/19 04:24:20;;;;;;;5.00;3.17;;;;;;;4.27;100.00;100012.14;4900098;57;1136535;-78
2024/04/19 04:29:27;;;;;;;4.33;2.90;;;;;;;4.24;100.00;100014.47;5106422;55;1136699;-77
2024/04/19 04:34:32;;;;;;;4.77;2.90;;;;;;;4.21;100.00;100009.41;5118841;55;1136570;-80
2024/04/19 04:39:38;;;;;;;4.50;2.93;;;;;;;4.26;100.00;100004.38;5095138;55;1136740;-80
2024/04/19 04:44:44;;;;;;;3.53;2.80;;;;;;;4.23;100.00;100002.31;5089637;55;1137007;-79
2024/04/19 04:49:49;;;;;;;3.57;2.57;;;;;;;4.22;100.00;99999.32;5085297;55;1136867;-79
2024/04/19 04:54:55;;;;;;;5.10;2.57;;;;;;;4.15;100.00;99994.53;5082471;55;1134683;-82
2024/04/19 05:00:00;;;;;;;3.95;2.60;;;;;;;4.16;100.00;99987.89;5075118;55;1134482;-79
2024/04/19 05:05:06;;;;;;;2.37;2.17;;;;;;;4.13;100.00;99984.61;5058430;55;1134517;-78
2024/04/19 05:10:12;;;;;;;5.17;2.53;;;;;;;4.12;100.00;99983.80;5094813;55;1134421;-83
2024/04/19 05:15:17;;;;;;;5.00;2.40;;;;;;;4.09;100.00;99977.44;5090962;55;1134570;-80
2024/04/19 05:20:24;;;;;;;3.10;2.30;;;;;;;4.13;100.00;99982.00;5095611;55;1134519;-79
2024/04/19 05:25:30;;;;;;;5.43;2.20;;;;;;;4.16;100.00;99981.81;5123987;55;1134504;-77
2024/04/19 05:30:35;;;;;;;5.93;2.10;;;;;;;4.19;100.00;99978.56;4968728;57;1134576;-80
2024/04/19 05:35:42;;;;;;;3.60;2.08;;;;;;;4.27;100.00;99983.81;4997553;57;1134773;-81
2024/04/19 05:40:48;;;;;;;4.60;2.20;;;;;;;4.37;100.00;99979.23;5067669;56;1134451;-82
2024/04/19 05:45:54;;;;;;;2.40;2.07;;;;;;;4.50;100.00;99979.32;5115494;55;1134610;-80
2024/04/19 05:50:59;;;;;;;4.65;1.98;;;;;;;4.63;100.00;99978.09;4993353;57;1134524;-79
2024/04/19 05:56:05;;;;;;;5.80;1.90;;;;;;;4.75;100.00;99974.71;5006945;57;1134927;-79
2024/04/19 06:01:10;;;;;;;4.30;1.70;;;;;;;4.95;100.00;99975.16;5019474;57;1134821;-80
2024/04/19 06:06:16;;;;;;;6.63;1.90;;;;;;;5.15;100.00;99968.66;4996446;57;1134429;-82
2024/04/19 06:11:21;;;;;;;4.63;1.83;;;;;;;5.37;100.00;99964.63;4978717;57;1134377;-79
2024/04/19 06:16:32;;;;;;;2.80;1.00;;;;;;;5.50;100.00;99954.55;5059971;56;1134667;-79
2024/04/19 06:21:39;;;;;;;6.70;1.30;;;;;;;5.56;100.00;99952.01;4995701;57;1134612;-79
2024/04/19 06:26:45;;;;;;;5.60;1.57;;;;;;;5.76;100.00;99944.13;5050065;57;1134355;-82
2024/04/19 06:31:50;;;;;;;9.60;2.05;;;;;;;5.99;100.00;99936.41;4989258;57;1134550;-81
2024/04/19 06:36:56;;;;;;;3.43;1.53;;;;;;;6.15;100.00;99929.64;5058243;56;1134390;-84
2024/04/19 06:42:01;;;;;;;8.10;1.43;;;;;;;6.42;100.00;99923.41;5003903;57;1134625;-82
2024/04/19 06:47:07;;;;;;;7.73;1.83;;;;;;;6.55;100.00;99921.16;4991552;57;1134445;-79
2024/04/19 06:52:13;;;;;;;7.28;1.70;;;;;;;6.70;100.00;99912.67;4993699;57;1134650;-80
2024/04/19 06:57:22;;;;;;;15.13;1.47;;;;;;;6.95;100.00;99909.11;5024956;57;1134335;-81
2024/04/19 07:02:27;;;;;;;5.37;1.47;;;;;;;7.03;100.00;99902.80;4966939;57;1136305;-79
2024/04/19 07:07:33;;;;;;;5.50;1.47;;;;;;;6.98;100.00;99903.16;5005366;57;1134285;-82
2024/04/19 07:12:38;;;;;;;5.37;1.97;;;;;;;6.91;100.00;99899.75;4986227;57;1134302;-81
2024/04/19 07:17:45;;;;;;;7.60;1.53;;;;;;;6.88;100.00;99894.23;4964840;57;1134632;-78
2024/04/19 07:22:52;;;;;;;6.77;1.60;;;;;;;6.91;100.00;99888.77;4971594;57;1134849;-79
2024/04/19 07:27:57;;;;;;;4.13;1.13;;;;;;;6.89;100.00;99886.72;5009998;57;1134432;-81
2024/04/19 07:33:03;;;;;;;4.50;1.85;;;;;;;6.91;100.00;99876.09;4959735;57;1134928;-80
2024/04/19 07:38:11;;;;;;;6.17;1.60;;;;;;;7.00;100.00;99860.52;4970737;57;1134277;-80
2024/04/19 07:43:16;;;;;;;8.10;1.73;;;;;;;7.21;100.00;99848.86;5093479;56;1134592;-80
2024/04/19 07:48:22;;;;;;;4.57;1.00;;;;;;;7.38;100.00;99848.92;4978419;57;1134350;-80
2024/04/19 07:53:27;;;;;;;3.77;1.57;;;;;;;7.51;100.00;99837.00;5074775;56;1134643;-80
2024/04/19 07:58:33;;;;;;;3.77;1.47;;;;;;;7.58;100.00;99835.11;5062776;57;1134437;-82
2024/04/19 08:03:39;;;;;;;16.23;5.63;;;;;;;7.84;100.00;99830.47;5095444;56;1136642;-79
2024/04/19 08:08:50;;;;;;;4.03;1.70;;;;;;;8.21;100.00;99824.98;5074631;56;1136899;-88
2024/04/19 08:13:51;;;;;;;7.73;1.50;;;;;;;8.29;100.00;99817.30;4991436;57;1134704;-81
2024/04/19 08:18:57;;;;;;;15.08;2.98;;;;;;;7.99;100.00;99823.18;4987222;57;1134427;-83
2024/04/19 08:24:03;;;;;;;10.95;2.35;;;;;;;7.85;100.00;99803.67;5067166;56;1136652;-82
2024/04/19 08:29:09;;;;;;;5.37;1.90;;;;;;;7.83;100.00;99793.26;5076922;56;1136741;-88
2024/04/19 08:34:14;;;;;;;11.38;2.92;;;;;;;7.95;100.00;99784.39;5095531;56;1135018;-79
2024/04/19 08:39:20;;;;;;;12.17;4.43;;;;;;;7.98;100.00;99784.16;5071228;56;1136695;-84
2024/04/19 08:44:26;;;;;;;19.77;5.83;;;;;;;7.99;100.00;99786.31;5072471;56;1138964;-83
2024/04/19 08:49:32;;;;;;;21.62;6.45;;;;;;;7.95;100.00;99780.45;4960499;57;1136396;-80
2024/04/19 08:54:39;;;;;;;16.07;2.75;;;;;;;7.97;100.00;99773.27;4981769;58;1136359;-82
2024/04/19 08:59:45;;;;;;;15.13;4.17;;;;;;;8.10;100.00;99770.02;5071064;57;1136666;-82
2024/04/19 09:04:51;;;;;;;8.97;2.53;;;;;;;8.12;100.00;99761.52;5004341;57;1139062;-80
2024/04/19 09:09:59;;;;;;;13.63;4.63;;;;;;;8.16;100.00;99759.48;5024197;57;1134302;-82
2024/04/19 09:15:05;;;;;;;7.87;2.60;;;;;;;8.24;100.00;99753.14;5076057;56;1136396;-82
2024/04/19 09:20:11;;;;;;;9.68;2.25;;;;;;;8.52;100.00;99743.04;5073279;56;1136544;-81
2024/04/19 09:25:17;;;;;;;6.97;3.00;;;;;;;8.58;100.00;99742.52;4964446;57;1136646;-80
2024/04/19 09:30:24;;;;;;;26.73;8.07;;;;;;;8.75;100.00;99728.31;5070029;56;1134641;-80
2024/04/19 09:35:30;;;;;;;7.23;2.57;;;;;;;8.91;100.00;99722.61;5072031;56;1136638;-80
2024/04/19 09:40:37;;;;;;;4.03;1.67;;;;;;;9.09;100.00;99719.75;5063639;56;1134944;-82
2024/04/19 09:45:45;;;;;;;4.53;2.33;;;;;;;9.22;100.00;99717.39;5005274;58;1134533;-83
2024/04/19 09:50:52;;;;;;;6.80;2.40;;;;;;;9.28;100.00;99707.17;4986836;57;1134604;-81
2024/04/19 09:56:30;;;;;;;16.80;6.30;;;;;;;9.34;100.00;99695.23;5074578;56;1134773;-82
2024/04/19 10:01:38;;;;;;;8.20;3.10;;;;;;;9.37;100.00;99687.06;5024806;57;1136716;-80
2024/04/19 10:06:44;;;;;;;9.80;1.97;;;;;;;9.27;100.00;99675.64;5074539;57;1134616;-79
2024/04/19 10:11:51;;;;;;;5.33;2.40;;;;;;;9.08;100.00;99677.20;5070567;56;1134410;-81
2024/04/19 10:16:56;;;;;;;5.77;2.80;;;;;;;8.87;100.00;99672.88;5077600;55;1134370;-81
2024/04/19 10:22:02;;;;;;;5.43;1.90;;;;;;;8.74;100.00;99667.33;5096828;56;1134809;-86
2024/04/19 10:27:10;;;;;;;2.37;1.17;;;;;;;8.37;100.00;99693.27;5091538;56;1136908;-83
2024/04/19 10:32:18;;;;;;;11.20;2.43;;;;;;;7.38;100.00;99727.92;5073689;56;1136560;-83
2024/04/19 10:37:25;;;;;;;1.60;1.10;;;;;;;6.69;100.00;99713.91;5084072;56;1138986;-79
2024/04/19 10:42:31;;;;;;;1.65;1.30;;;;;;;6.54;100.00;99643.64;5091424;56;1134791;-81
2024/04/19 10:47:39;;;;;;;1.70;0.90;;;;;;;6.90;100.00;99653.62;4948542;57;1136814;-85
2024/04/19 10:52:44;;;;;;;2.87;1.37;;;;;;;7.31;100.00;99643.41;5071227;56;1136479;-83
2024/04/19 10:57:50;;;;;;;5.07;2.60;;;;;;;7.81;100.00;99636.39;4978589;57;1136881;-84
2024/04/19 11:02:58;;;;;;;8.23;4.87;;;;;;;8.07;100.00;99627.24;5067621;56;1136588;-81
2024/04/19 11:08:05;;;;;;;16.83;7.20;;;;;;;8.38;100.00;99618.53;4938707;57;1136905;-83
2024/04/19 11:13:13;;;;;;;30.20;11.18;;;;;;;8.69;100.00;99607.58;5090064;56;1138478;-81
2024/04/19 11:18:19;;;;;;;35.38;13.38;;;;;;;8.65;100.00;99594.30;4999389;57;1140765;-81
2024/04/19 11:23:25;;;;;;;32.70;11.83;;;;;;;8.77;100.00;99579.23;4980343;57;1140652;-81
2024/04/19 11:28:31;;;;;;;9.13;3.65;;;;;;;8.90;100.00;99566.67;5072228;56;1140890;-80
2024/04/19 11:33:36;;;;;;;19.30;9.23;;;;;;;8.81;100.00;99560.40;5087305;57;1136824;-82
2024/04/19 11:38:42;;;;;;;12.43;4.67;;;;;;;8.78;100.00;99552.75;4975879;57;1138836;-80
2024/04/19 11:43:48;;;;;;;19.33;9.53;;;;;;;8.74;100.00;99546.54;4984908;57;1139001;-81
2024/04/19 11:48:54;;;;;;;27.77;8.00;;;;;;;8.75;100.00;99537.19;5005907;57;1139238;-82
2024/04/19 11:53:59;;;;;;;88.23;25.17;;;;;;;8.68;100.00;99532.10;4985211;57;1138780;-82
2024/04/19 11:59:05;;;;;;;43.40;14.00;;;;;;;8.55;100.00;99533.28;5042916;56;1141016;-82
2024/04/19 12:04:10;;;;;;;30.95;11.75;;;;;;;8.54;100.00;99537.71;5019974;57;1140953;-81
2024/04/19 12:09:16;;;;;;;21.80;8.68;;;;;;;8.43;100.00;99562.31;5041363;56;1140976;-80
2024/04/19 12:14:22;;;;;;;7.37;4.50;;;;;;;7.88;100.00;99575.23;4983231;57;1138568;-81
2024/04/19 12:19:27;;;;;;;15.87;6.83;;;;;;;7.13;100.00;99576.94;5109181;55;1136744;-82
2024/04/19 12:24:37;;;;;;;7.53;2.30;;;;;;;6.64;100.00;99572.84;5152194;55;1138714;-81
2024/04/19 12:29:45;;;;;;;0.83;0.83;;;;;;;6.26;100.00;99573.94;5111136;55;1136492;-81
2024/04/19 12:34:49;;;;;;;3.97;1.00;;;;;;;6.16;100.00;99552.42;4949557;57;1136720;-81
2024/04/19 12:39:55;;;;;;;1.60;1.50;;;;;;;6.19;100.00;99533.83;5021845;57;1137015;-81
2024/04/19 12:45:01;;;;;;;1.27;1.00;;;;;;;6.32;100.00;99529.32;5038281;57;1253798;-82
2024/04/19 12:50:07;;;;;;;11.90;4.97;;;;;;;6.50;100.00;99522.67;4941969;58;1136870;-80
2024/04/19 12:55:13;;;;;;;32.97;17.13;;;;;;;6.65;100.00;99509.67;4928771;59;1138521;-80
2024/04/19 13:00:18;;;;;;;22.37;12.33;;;;;;;6.88;100.00;99497.83;4858077;58;1140786;-80
2024/04/19 13:05:25;;;;;;;12.23;6.50;;;;;;;7.14;100.00;99490.05;4896899;57;1140550;-83
2024/04/19 13:10:31;;;;;;;5.95;3.72;;;;;;;7.39;100.00;99481.84;4793882;58;1138812;-84
2024/04/19 13:15:36;;;;;;;160.82;58.75;;;;;;;7.69;100.00;99477.67;4885475;59;1136564;-84
2024/04/19 13:20:42;;;;;;;12.47;6.43;;;;;;;7.89;100.00;99468.14;4864768;58;1142958;-81
2024/04/19 13:25:47;;;;;;;11.03;6.30;;;;;;;7.94;100.00;99461.54;4880132;58;1138631;-80
2024/04/19 13:30:56;;;;;;;7.85;4.37;;;;;;;8.09;100.00;99451.52;4915471;58;1138883;-83
2024/04/19 13:36:03;;;;;;;16.34;10.20;;;;;;;8.25;100.00;99441.33;4944541;58;1136965;-81
2024/04/19 13:41:09;;;;;;;17.62;11.20;;;;;;;8.36;100.00;99423.34;4907384;56;1140992;-81
2024/04/19 13:46:15;;;;;;;24.40;13.00;;;;;;;8.40;100.00;99426.07;4917995;58;1140960;-79
2024/04/19 13:51:20;;;;;;;38.00;17.87;;;;;;;8.48;100.00;99414.86;4889947;58;1140602;-85
2024/04/19 13:56:26;;;;;;;28.90;13.37;;;;;;;8.49;100.00;99408.14;4889173;58;1140830;-82
2024/04/19 14:01:31;;;;;;;13.80;6.83;;;;;;;8.45;100.00;99403.61;4893833;58;1140965;-83
2024/04/19 14:06:37;;;;;;;23.00;11.80;;;;;;;8.48;100.00;99403.83;4912868;58;1138693;-83
2024/04/19 14:11:44;;;;;;;42.20;19.37;;;;;;;8.42;100.00;99399.92;4902528;58;1140702;-80
2024/04/19 14:16:51;;;;;;;12.80;6.97;;;;;;;8.25;100.00;99397.06;4908824;58;1140742;-81
2024/04/19 14:21:56;;;;;;;5.10;3.37;;;;;;;8.26;100.00;99392.95;4919225;58;1138742;-83
2024/04/19 14:27:02;;;;;;;6.57;3.97;;;;;;;8.21;100.00;99388.58;4900493;57;1136701;-81
2024/04/19 14:32:08;;;;;;;4.00;3.47;;;;;;;8.17;100.00;99388.97;4832671;57;1136616;-83
2024/04/19 14:37:14;;;;;;;12.28;6.87;;;;;;;8.15;100.00;99375.09;4868074;57;1136513;-79
2024/04/19 14:42:21;;;;;;;9.48;5.70;;;;;;;8.17;100.00;99369.21;4804719;58;1138471;-82
2024/04/19 14:47:26;;;;;;;17.27;9.93;;;;;;;8.17;100.00;99362.14;4802277;59;1136505;-81
2024/04/19 14:52:32;;;;;;;37.53;15.80;;;;;;;8.21;100.00;99363.56;4763005;59;1144713;-82
2024/04/19 14:57:37;;;;;;;75.37;31.33;;;;;;;8.19;100.00;99351.48;4821378;60;1141010;-82
2024/04/19 15:02:43;;;;;;;38.17;20.13;;;;;;;8.21;100.00;99342.97;4771564;60;1140510;-82
2024/04/19 15:07:48;;;;;;;27.97;14.87;;;;;;;8.21;100.00;99339.02;4856573;58;1140734;-80
2024/04/19 15:12:54;;;;;;;10.07;6.23;;;;;;;8.22;100.00;99336.73;4902975;58;1141090;-85
2024/04/19 15:18:00;;;;;;;29.53;13.50;;;;;;;8.19;100.00;99340.95;4874023;58;1138711;-85
2024/04/19 15:23:09;;;;;;;33.07;15.30;;;;;;;8.23;100.00;99335.77;4854614;59;1140956;-81
2024/04/19 15:28:15;;;;;;;34.13;15.40;;;;;;;8.25;100.00;99321.48;4957125;58;1140724;-84
2024/04/19 15:33:21;;;;;;;19.87;8.65;;;;;;;8.30;100.00;99321.09;4887524;59;1140788;-82
2024/04/19 15:38:28;;;;;;;13.97;6.23;;;;;;;8.30;100.00;99314.02;4895280;58;1138888;-81
2024/04/19 15:43:35;;;;;;;10.88;4.42;;;;;;;8.25;100.00;99310.14;4864419;57;1138853;-82
2024/04/19 15:48:41;;;;;;;7.30;4.40;;;;;;;8.26;100.00;99299.92;4957481;57;1138650;-81
2024/04/19 15:53:46;;;;;;;5.17;4.67;;;;;;;8.26;100.00;99286.75;4999894;57;1136409;-83
2024/04/19 15:58:52;;;;;;;5.00;4.50;;;;;;;8.27;100.00;99281.35;4992308;57;1136576;-81
2024/04/19 16:03:57;;;;;;;7.93;4.37;;;;;;;8.27;100.00;99283.98;5006428;57;1136572;-83
2024/04/19 16:09:03;;;;;;;5.50;3.50;;;;;;;8.26;100.00;99276.22;5042851;56;1136819;-84
2024/04/19 16:14:08;;;;;;;4.60;4.13;;;;;;;8.22;100.00;99278.31;4984728;57;1136534;-83
2024/04/19 16:19:14;;;;;;;6.87;5.00;;;;;;;8.19;100.00;99273.79;4980105;57;1136524;-81
2024/04/19 16:24:19;;;;;;;27.40;10.70;;;;;;;8.12;100.00;99273.00;5009586;57;1136501;-83
2024/04/19 16:29:25;;;;;;;67.77;21.47;;;;;;;8.07;100.00;99273.91;5085605;56;1140632;-84
2024/04/19 16:34:31;;;;;;;43.87;18.80;;;;;;;8.03;100.00;99268.55;5040037;56;1140972;-83
2024/04/19 16:39:37;;;;;;;9.27;4.60;;;;;;;8.00;100.00;99275.39;5054397;56;1140563;-85
2024/04/19 16:44:46;;;;;;;17.73;7.30;;;;;;;7.68;100.00;99298.38;5027683;56;1136395;-81
2024/04/19 16:49:50;;;;;;;75.12;42.45;;;;;;;7.27;100.00;99286.09;5083567;56;1139012;-83
2024/04/19 16:54:55;;;;;;;13.17;6.43;;;;;;;7.11;100.00;99268.13;5044732;56;1140745;-84
2024/04/19 17:00:01;;;;;;;4.40;2.93;;;;;;;7.02;100.00;99257.91;5043541;57;1138763;-85
2024/04/19 17:05:07;;;;;;;28.00;12.75;;;;;;;7.02;100.00;99261.84;5029957;56;1136565;-82
2024/04/19 17:10:13;;;;;;;8.48;5.62;;;;;;;7.11;100.00;99264.18;4949375;57;1140723;-86
2024/04/19 17:15:18;;;;;;;2.72;1.42;;;;;;;7.20;100.00;99263.88;5003164;57;1136433;-83
2024/04/19 17:20:23;;;;;;;2.67;1.80;;;;;;;7.16;100.00;99265.12;4900139;58;1136352;-82
2024/04/19 17:25:29;;;;;;;4.33;3.20;;;;;;;7.06;100.00;99262.40;4884983;57;1136488;-82
2024/04/19 17:30:41;;;;;;;2.07;1.80;;;;;;;7.02;100.00;99261.02;4932417;58;1136588;-80
2024/04/19 17:35:46;;;;;;;4.43;2.60;;;;;;;7.08;100.00;99259.17;4945623;57;1136780;-80
2024/04/19 17:40:52;;;;;;;3.60;2.50;;;;;;;7.15;100.00;99263.45;4985209;57;1136807;-84
2024/04/19 17:45:57;;;;;;;3.90;2.63;;;;;;;7.13;100.00;99258.31;5009283;57;1136767;-81
2024/04/19 17:51:03;;;;;;;3.47;3.17;;;;;;;7.06;100.00;99263.23;4934581;58;1136910;-79
2024/04/19 17:56:09;;;;;;;5.03;3.27;;;;;;;7.05;100.00;99264.20;4974099;57;1136654;-79
2024/04/19 18:01:14;;;;;;;9.70;2.53;;;;;;;7.01;100.00;99262.80;4949780;57;1136634;-81
2024/04/19 18:06:19;;;;;;;44.25;16.25;;;;;;;7.03;100.00;99267.42;4986282;57;1136704;-81
2024/04/19 18:11:24;;;;;;;36.85;20.37;;;;;;;7.07;100.00;99260.13;4923874;58;1140722;-80
2024/04/19 18:16:28;;;;;;;61.27;17.40;;;;;;;7.13;100.00;99260.95;4925414;57;1140607;-79
2024/04/19 18:21:33;;;;;;;53.67;17.03;;;;;;;7.15;100.00;99263.45;4980267;57;1140710;-84
2024/04/19 18:26:38;;;;;;;21.40;13.13;;;;;;;7.14;100.00;99267.03;4926281;57;1140879;-82
2024/04/19 18:31:43;;;;;;;15.70;9.17;;;;;;;7.06;100.00;99261.09;4948465;57;1140791;-80
2024/04/19 18:36:48;;;;;;;19.47;10.20;;;;;;;7.08;100.00;99267.05;4945068;58;1138823;-83
2024/04/19 18:41:53;;;;;;;7.20;4.47;;;;;;;7.02;100.00;99271.53;4915193;58;1140747;-83
2024/04/19 18:46:58;;;;;;;9.07;5.63;;;;;;;6.84;100.00;99276.50;4962573;57;1136873;-80
2024/04/19 18:52:03;;;;;;;37.20;16.97;;;;;;;6.75;100.00;99280.34;4950089;57;1136769;-82
2024/04/19 18:57:09;;;;;;;35.50;15.24;;;;;;;6.77;100.00;99278.42;4983887;57;1140615;-81
2024/04/19 19:02:14;;;;;;;39.30;16.10;;;;;;;6.78;100.00;99275.67;4985423;56;1140701;-80
2024/04/19 19:07:19;;;;;;;14.33;7.80;;;;;;;6.80;100.00;99276.39;4987383;57;1140722;-81
2024/04/19 19:12:24;;;;;;;6.07;5.47;;;;;;;6.80;100.00;99275.55;4893023;57;1136395;-82
2024/04/19 19:17:29;;;;;;;7.43;4.60;;;;;;;6.77;100.00;99276.63;4954999;57;1136743;-82
2024/04/19 19:22:34;;;;;;;8.00;4.53;;;;;;;6.76;100.00;99274.12;4997812;57;1136421;-80
2024/04/19 19:27:40;;;;;;;5.13;4.63;;;;;;;6.85;100.00;99269.45;4968832;57;1136673;-78
2024/04/19 19:32:46;;;;;;;5.20;4.10;;;;;;;6.87;100.00;99267.05;4948798;57;1136505;-81
2024/04/19 19:37:51;;;;;;;6.33;4.50;;;;;;;6.79;100.00;99262.06;4948838;58;1136753;-81
2024/04/19 19:42:56;;;;;;;3.60;3.27;;;;;;;6.72;100.00;99266.16;5106468;56;1136420;-80
2024/04/19 19:48:02;;;;;;;3.53;3.03;;;;;;;6.62;100.00;99266.89;4940696;56;1136681;-81
2024/04/19 19:53:06;;;;;;;9.37;6.17;;;;;;;6.52;100.00;99271.71;4976155;56;1136588;-80
2024/04/19 19:58:11;;;;;;;10.47;4.50;;;;;;;6.45;100.00;99272.67;5043643;57;1136457;-79
2024/04/19 20:08:39;;;;;;;4.47;3.15;;;;;;;6.41;100.00;99272.58;5043052;56;1136735;-80
2024/04/19 20:13:44;;;;;;;6.55;4.05;;;;;;;6.42;100.00;99273.39;4885372;58;1136409;-83
2024/04/19 20:18:50;;;;;;;3.20;2.90;;;;;;;6.47;100.00;99275.17;4919410;58;1136408;-81
2024/04/19 20:23:55;;;;;;;8.73;4.33;;;;;;;6.44;100.00;99281.50;4948734;57;1136355;-83
2024/04/19 20:29:02;;;;;;;10.70;5.17;;;;;;;6.35;100.00;99269.96;4963687;58;1136477;-80
2024/04/19 20:34:08;;;;;;;46.50;16.17;;;;;;;6.34;100.00;99276.16;4983793;58;1138351;-82
2024/04/19 20:39:14;;;;;;;25.00;9.43;;;;;;;6.31;100.00;99279.03;5045773;57;1141017;-78
2024/04/19 20:44:19;;;;;;;54.80;19.73;;;;;;;6.31;100.00;99282.13;5046153;57;1138449;-77
2024/04/19 20:49:25;;;;;;;42.73;12.50;;;;;;;6.28;100.00;99275.80;5024361;57;1140634;-77
2024/04/19 20:54:30;;;;;;;39.97;11.53;;;;;;;6.24;100.00;99278.34;4960951;58;1140467;-77
2024/04/19 20:59:36;;;;;;;35.50;14.50;;;;;;;6.24;100.00;99280.97;4963267;58;1140922;-77
2024/04/19 21:04:41;;;;;;;10.00;5.33;;;;;;;6.21;100.00;99279.42;4957059;58;1140829;-77
2024/04/19 21:09:47;;;;;;;14.40;4.42;;;;;;;6.16;100.00;99274.16;4933115;57;1138540;-77
2024/04/19 21:14:53;;;;;;;9.23;4.40;;;;;;;6.12;100.00;99276.66;4964697;57;1138491;-77
2024/04/19 21:19:58;;;;;;;8.93;4.77;;;;;;;6.08;100.00;99285.28;4936081;58;1136518;-77
2024/04/19 21:25:04;;;;;;;7.57;4.37;;;;;;;6.06;100.00;99290.29;4901546;58;1136410;-77
2024/04/19 21:30:12;;;;;;;7.23;3.43;;;;;;;6.03;100.00;99281.34;4938701;57;1215830;-77
2024/04/19 21:35:18;;;;;;;13.15;5.72;;;;;;;6.04;100.00;99288.26;4936188;58;1136601;-77
2024/04/19 21:40:23;;;;;;;8.50;3.75;;;;;;;6.06;100.00;99287.19;4863110;58;1139255;-77
2024/04/19 21:45:30;;;;;;;7.53;3.67;;;;;;;6.06;100.00;99284.56;4973762;57;1136528;-78
2024/04/19 21:50:36;;;;;;;3.60;2.77;;;;;;;6.10;100.00;99278.60;4976579;57;1136654;-77
2024/04/19 21:55:48;;;;;;;4.57;3.33;;;;;;;6.10;100.00;99287.79;4986392;57;1136560;-78
2024/04/19 22:00:53;;;;;;;5.97;4.37;;;;;;;6.06;100.00;99282.42;4965820;57;1136760;-77
2024/04/19 22:05:59;;;;;;;5.30;3.98;;;;;;;6.06;100.00;99277.17;4989938;57;1134727;-77
2024/04/19 22:11:08;;;;;;;3.90;3.30;;;;;;;6.07;100.00;99287.55;4987235;57;1134394;-78
2024/04/19 22:16:13;;;;;;;3.43;2.87;;;;;;;6.06;100.00;99283.25;4964214;58;1136463;-78
2024/04/19 22:21:19;;;;;;;7.62;4.97;;;;;;;6.07;100.00;99288.02;5038160;57;1136353;-78
2024/04/19 22:26:25;;;;;;;4.45;3.00;;;;;;;6.09;100.00;99291.37;5065703;57;1136270;-78
2024/04/19 22:31:31;;;;;;;5.03;4.00;;;;;;;6.14;100.00;99295.28;5045677;57;1136513;-77
2024/04/19 22:36:42;;;;;;;6.63;4.20;;;;;;;6.09;100.00;99286.95;5045750;57;1136978;-78
2024/04/19 22:41:44;;;;;;;5.70;4.22;;;;;;;6.09;100.00;99299.24;5029356;57;1136407;-77
2024/04/19 22:46:50;;;;;;;2.90;2.70;;;;;;;6.11;100.00;99300.77;4963767;56;1136725;-77
2024/04/19 22:51:56;;;;;;;4.13;3.43;;;;;;;6.12;100.00;99298.98;4963680;56;1136609;-78
2024/04/19 22:57:01;;;;;;;4.00;3.60;;;;;;;6.05;100.00;99305.20;4983001;57;1136510;-78
2024/04/19 23:02:07;;;;;;;3.93;3.53;;;;;;;5.98;100.00;99302.20;4963829;56;1136463;-77
2024/04/19 23:07:13;;;;;;;4.25;3.72;;;;;;;5.94;100.00;99311.77;4965943;56;1136603;-78
2024/04/19 23:12:19;;;;;;;3.98;3.65;;;;;;;5.96;100.00;99307.22;4945304;58;1136267;-78
2024/04/19 23:17:25;;;;;;;4.65;3.90;;;;;;;5.95;100.00;99306.88;4940235;57;1136306;-77
2024/04/19 23:22:32;;;;;;;4.30;3.90;;;;;;;5.94;100.00;99308.67;4939917;57;1134279;-77